Главная страница
METAR-TAF:

METAR-TAF

Аэропорты :

Триполи, Ливия

широта: 32-54N, долгота: 13-17E, высота над уровнем моря: 11 м

METAR: отсутствует

Время: 15:57 (13:57 UTC)

Прогноз

Эта сводка был подготовлена 2 часа и 57 минут назад, в 11:00 UTC
Прогноз действительный с 22-го 12 UTC до 23-го 12 UTC
Ветер 12 Узел от северно-северо-западный
Видимость: 8000 м
Отдельные облака на высоте 2500 фута
Рассеянная облачность на высоте 7000 фута
временами
С 23-го 12 UTC до 23-го 12 UTC
Видимость: 5000 м
Рассеянная облачность на высоте 2000 фута
ливневые дожди

TAF: HLLM 221100Z 2212/2312 34012KT 8000 SCT025 BKN070 TEMPO 2312/2312 5000 SHRA BKN020

Метеонаблюдения и прогнозы для более 4000 аэропортов (сводки METAR и TAF).

Имеющиеся станции представлены на карте желтыми и красными точками.

Чтобы увидеть название станции, наведите на нее мышь.

Затем щелкните, чтобы увидеть метеонаблюдения и метеопрогнозы.

Управление картой: чтобы увеличить масштаб, щелкните зеленые кнопки с черным крестиком; чтобы уменьшить масштаб, щелкните зеленую кнопку с тире; для просмотра соседних карт щелкайте зеленые стрелки.


METAR-TAF: